sensor_id;sensor_type;location;lat;lon;timestamp;P1;durP1;ratioP1;P2;durP2;ratioP2
18883;SDS011;9574;47.282;9.640;2022-12-15T00:00:41;11.27;;;6.10;;
18883;SDS011;9574;47.282;9.640;2022-12-15T00:03:25;8.13;;;5.67;;
18883;SDS011;9574;47.282;9.640;2022-12-15T00:06:09;12.03;;;6.10;;
18883;SDS011;9574;47.282;9.640;2022-12-15T00:08:54;9.53;;;5.80;;
18883;SDS011;9574;47.282;9.640;2022-12-15T00:11:38;11.27;;;5.83;;
18883;SDS011;9574;47.282;9.640;2022-12-15T00:14:24;10.50;;;6.47;;
18883;SDS011;9574;47.282;9.640;2022-12-15T00:17:08;8.33;;;5.50;;
18883;SDS011;9574;47.282;9.640;2022-12-15T00:19:53;8.63;;;5.70;;
18883;SDS011;9574;47.282;9.640;2022-12-15T00:22:37;8.50;;;5.53;;
18883;SDS011;9574;47.282;9.640;2022-12-15T00:25:21;10.13;;;5.73;;
18883;SDS011;9574;47.282;9.640;2022-12-15T00:28:05;9.47;;;5.97;;
18883;SDS011;9574;47.282;9.640;2022-12-15T00:30:51;10.57;;;5.60;;
18883;SDS011;9574;47.282;9.640;2022-12-15T00:33:35;9.80;;;4.50;;
18883;SDS011;9574;47.282;9.640;2022-12-15T00:36:19;7.13;;;4.83;;
18883;SDS011;9574;47.282;9.640;2022-12-15T00:39:05;10.90;;;5.83;;
18883;SDS011;9574;47.282;9.640;2022-12-15T00:41:32;8.97;;;5.40;;
18883;SDS011;9574;47.282;9.640;2022-12-15T00:43:59;10.20;;;5.53;;
18883;SDS011;9574;47.282;9.640;2022-12-15T00:46:27;8.13;;;5.37;;
18883;SDS011;9574;47.282;9.640;2022-12-15T00:49:12;7.90;;;5.60;;
18883;SDS011;9574;47.282;9.640;2022-12-15T00:51:52;8.60;;;5.70;;
18883;SDS011;9574;47.282;9.640;2022-12-15T00:54:37;9.33;;;5.53;;
18883;SDS011;9574;47.282;9.640;2022-12-15T00:57:21;9.20;;;5.70;;
18883;SDS011;9574;47.282;9.640;2022-12-15T01:00:05;10.10;;;5.87;;
18883;SDS011;9574;47.282;9.640;2022-12-15T01:02:52;8.73;;;5.17;;
18883;SDS011;9574;47.282;9.640;2022-12-15T01:05:37;9.07;;;5.07;;
18883;SDS011;9574;47.282;9.640;2022-12-15T01:08:21;8.90;;;5.63;;
18883;SDS011;9574;47.282;9.640;2022-12-15T01:11:05;10.73;;;5.00;;
18883;SDS011;9574;47.282;9.640;2022-12-15T01:13:50;6.53;;;4.83;;
18883;SDS011;9574;47.282;9.640;2022-12-15T01:16:34;8.37;;;4.93;;
18883;SDS011;9574;47.282;9.640;2022-12-15T01:19:20;8.77;;;5.40;;
18883;SDS011;9574;47.282;9.640;2022-12-15T01:22:04;7.73;;;5.30;;
18883;SDS011;9574;47.282;9.640;2022-12-15T01:24:31;8.63;;;4.83;;
18883;SDS011;9574;47.282;9.640;2022-12-15T01:26:59;10.23;;;5.63;;
18883;SDS011;9574;47.282;9.640;2022-12-15T01:29:26;9.23;;;5.70;;
18883;SDS011;9574;47.282;9.640;2022-12-15T01:31:53;10.97;;;6.40;;
18883;SDS011;9574;47.282;9.640;2022-12-15T01:34:21;10.63;;;6.37;;
18883;SDS011;9574;47.282;9.640;2022-12-15T01:36:48;11.40;;;5.87;;
18883;SDS011;9574;47.282;9.640;2022-12-15T01:39:15;9.50;;;6.10;;
18883;SDS011;9574;47.282;9.640;2022-12-15T01:41:42;10.37;;;6.30;;
18883;SDS011;9574;47.282;9.640;2022-12-15T01:44:18;12.20;;;6.13;;
18883;SDS011;9574;47.282;9.640;2022-12-15T01:46:47;10.17;;;5.97;;
18883;SDS011;9574;47.282;9.640;2022-12-15T01:49:17;15.63;;;6.93;;
18883;SDS011;9574;47.282;9.640;2022-12-15T01:51:50;11.83;;;6.57;;
18883;SDS011;9574;47.282;9.640;2022-12-15T01:54:23;12.13;;;6.43;;
18883;SDS011;9574;47.282;9.640;2022-12-15T01:56:54;11.70;;;6.40;;
18883;SDS011;9574;47.282;9.640;2022-12-15T01:59:26;13.43;;;7.17;;
18883;SDS011;9574;47.282;9.640;2022-12-15T02:01:58;14.80;;;6.63;;
18883;SDS011;9574;47.282;9.640;2022-12-15T02:04:25;10.27;;;5.63;;
18883;SDS011;9574;47.282;9.640;2022-12-15T02:06:53;11.87;;;6.57;;
18883;SDS011;9574;47.282;9.640;2022-12-15T02:09:20;10.70;;;5.90;;
18883;SDS011;9574;47.282;9.640;2022-12-15T02:11:54;12.27;;;7.27;;
18883;SDS011;9574;47.282;9.640;2022-12-15T02:14:27;10.73;;;6.70;;
18883;SDS011;9574;47.282;9.640;2022-12-15T02:17:15;32.17;;;14.97;;
18883;SDS011;9574;47.282;9.640;2022-12-15T02:23:15;18.07;;;8.83;;
18883;SDS011;9574;47.282;9.640;2022-12-15T02:28:59;17.27;;;9.17;;
18883;SDS011;9574;47.282;9.640;2022-12-15T02:31:38;14.27;;;8.47;;
18883;SDS011;9574;47.282;9.640;2022-12-15T02:34:16;14.13;;;8.40;;
18883;SDS011;9574;47.282;9.640;2022-12-15T02:36:49;17.33;;;8.83;;
18883;SDS011;9574;47.282;9.640;2022-12-15T02:39:21;13.20;;;8.03;;
18883;SDS011;9574;47.282;9.640;2022-12-15T02:41:49;13.57;;;8.30;;
18883;SDS011;9574;47.282;9.640;2022-12-15T02:44:18;17.57;;;8.83;;
18883;SDS011;9574;47.282;9.640;2022-12-15T02:46:56;15.53;;;8.53;;
18883;SDS011;9574;47.282;9.640;2022-12-15T02:49:32;13.03;;;7.97;;
18883;SDS011;9574;47.282;9.640;2022-12-15T02:52:11;13.33;;;8.10;;
18883;SDS011;9574;47.282;9.640;2022-12-15T02:54:54;12.23;;;7.90;;
18883;SDS011;9574;47.282;9.640;2022-12-15T02:57:31;13.10;;;8.33;;
18883;SDS011;9574;47.282;9.640;2022-12-15T03:00:08;13.47;;;8.40;;
18883;SDS011;9574;47.282;9.640;2022-12-15T03:02:40;12.90;;;8.53;;
18883;SDS011;9574;47.282;9.640;2022-12-15T03:05:10;14.10;;;9.43;;
18883;SDS011;9574;47.282;9.640;2022-12-15T03:07:39;14.47;;;8.47;;
18883;SDS011;9574;47.282;9.640;2022-12-15T03:10:07;15.63;;;8.00;;
18883;SDS011;9574;47.282;9.640;2022-12-15T03:12:36;16.13;;;8.53;;
18883;SDS011;9574;47.282;9.640;2022-12-15T03:15:03;15.83;;;8.00;;
18883;SDS011;9574;47.282;9.640;2022-12-15T03:17:31;12.63;;;7.67;;
18883;SDS011;9574;47.282;9.640;2022-12-15T03:19:59;26.73;;;13.87;;
18883;SDS011;9574;47.282;9.640;2022-12-15T03:22:26;19.43;;;10.80;;
18883;SDS011;9574;47.282;9.640;2022-12-15T03:24:53;17.67;;;9.47;;
18883;SDS011;9574;47.282;9.640;2022-12-15T03:27:20;15.97;;;9.30;;
18883;SDS011;9574;47.282;9.640;2022-12-15T03:29:47;13.57;;;8.33;;
18883;SDS011;9574;47.282;9.640;2022-12-15T03:32:14;15.03;;;8.50;;
18883;SDS011;9574;47.282;9.640;2022-12-15T03:34:41;18.13;;;9.23;;
18883;SDS011;9574;47.282;9.640;2022-12-15T03:37:09;15.03;;;8.33;;
18883;SDS011;9574;47.282;9.640;2022-12-15T03:39:36;13.17;;;8.57;;
18883;SDS011;9574;47.282;9.640;2022-12-15T03:42:03;13.03;;;8.13;;
18883;SDS011;9574;47.282;9.640;2022-12-15T03:44:30;12.60;;;8.20;;
18883;SDS011;9574;47.282;9.640;2022-12-15T03:46:57;12.97;;;8.43;;
18883;SDS011;9574;47.282;9.640;2022-12-15T03:49:24;12.33;;;7.63;;
18883;SDS011;9574;47.282;9.640;2022-12-15T03:51:51;12.53;;;8.03;;
18883;SDS011;9574;47.282;9.640;2022-12-15T03:54:19;12.57;;;7.80;;
18883;SDS011;9574;47.282;9.640;2022-12-15T03:56:46;12.23;;;7.57;;
18883;SDS011;9574;47.282;9.640;2022-12-15T03:59:14;12.03;;;7.37;;
18883;SDS011;9574;47.282;9.640;2022-12-15T04:01:44;12.80;;;6.90;;
18883;SDS011;9574;47.282;9.640;2022-12-15T04:04:12;12.90;;;7.80;;
18883;SDS011;9574;47.282;9.640;2022-12-15T04:06:39;13.73;;;7.20;;
18883;SDS011;9574;47.282;9.640;2022-12-15T04:09:06;10.80;;;7.13;;
18883;SDS011;9574;47.282;9.640;2022-12-15T04:11:34;11.40;;;7.20;;
18883;SDS011;9574;47.282;9.640;2022-12-15T04:14:01;16.53;;;8.73;;
18883;SDS011;9574;47.282;9.640;2022-12-15T04:16:28;14.80;;;8.07;;
18883;SDS011;9574;47.282;9.640;2022-12-15T04:18:56;12.07;;;7.77;;
18883;SDS011;9574;47.282;9.640;2022-12-15T04:21:40;14.10;;;7.63;;
18883;SDS011;9574;47.282;9.640;2022-12-15T04:24:07;14.17;;;7.10;;
18883;SDS011;9574;47.282;9.640;2022-12-15T04:26:53;13.03;;;7.40;;
18883;SDS011;9574;47.282;9.640;2022-12-15T04:29:37;14.17;;;7.47;;
18883;SDS011;9574;47.282;9.640;2022-12-15T04:32:21;10.77;;;7.57;;
18883;SDS011;9574;47.282;9.640;2022-12-15T04:35:06;13.27;;;7.70;;
18883;SDS011;9574;47.282;9.640;2022-12-15T04:37:51;14.10;;;7.87;;
18883;SDS011;9574;47.282;9.640;2022-12-15T04:40:35;11.73;;;7.33;;
18883;SDS011;9574;47.282;9.640;2022-12-15T04:43:22;35.47;;;9.17;;
18883;SDS011;9574;47.282;9.640;2022-12-15T04:46:07;15.27;;;8.30;;
18883;SDS011;9574;47.282;9.640;2022-12-15T04:48:52;21.20;;;8.83;;
18883;SDS011;9574;47.282;9.640;2022-12-15T04:51:36;19.13;;;7.90;;
18883;SDS011;9574;47.282;9.640;2022-12-15T04:54:20;22.67;;;8.47;;
18883;SDS011;9574;47.282;9.640;2022-12-15T04:57:05;25.40;;;9.23;;
18883;SDS011;9574;47.282;9.640;2022-12-15T04:59:50;28.67;;;8.80;;
18883;SDS011;9574;47.282;9.640;2022-12-15T05:02:35;19.77;;;7.67;;
18883;SDS011;9574;47.282;9.640;2022-12-15T05:05:19;37.40;;;7.37;;
18883;SDS011;9574;47.282;9.640;2022-12-15T05:08:03;41.40;;;6.73;;
18883;SDS011;9574;47.282;9.640;2022-12-15T05:10:48;51.73;;;6.57;;
18883;SDS011;9574;47.282;9.640;2022-12-15T05:13:32;53.50;;;7.00;;
18883;SDS011;9574;47.282;9.640;2022-12-15T05:16:18;33.07;;;6.53;;
18883;SDS011;9574;47.282;9.640;2022-12-15T05:19:02;32.70;;;7.13;;
18883;SDS011;9574;47.282;9.640;2022-12-15T05:21:47;19.10;;;7.40;;
18883;SDS011;9574;47.282;9.640;2022-12-15T05:24:32;40.43;;;7.80;;
18883;SDS011;9574;47.282;9.640;2022-12-15T05:27:16;20.73;;;7.00;;
18883;SDS011;9574;47.282;9.640;2022-12-15T05:30:00;30.60;;;7.30;;
18883;SDS011;9574;47.282;9.640;2022-12-15T05:32:46;44.70;;;6.50;;
18883;SDS011;9574;47.282;9.640;2022-12-15T05:35:13;47.70;;;7.10;;
18883;SDS011;9574;47.282;9.640;2022-12-15T05:37:40;21.40;;;7.07;;
18883;SDS011;9574;47.282;9.640;2022-12-15T05:40:07;23.23;;;7.13;;
18883;SDS011;9574;47.282;9.640;2022-12-15T05:42:35;31.47;;;6.30;;
18883;SDS011;9574;47.282;9.640;2022-12-15T05:45:02;32.20;;;6.87;;
18883;SDS011;9574;47.282;9.640;2022-12-15T05:47:30;25.60;;;6.40;;
18883;SDS011;9574;47.282;9.640;2022-12-15T05:49:58;28.50;;;6.30;;
18883;SDS011;9574;47.282;9.640;2022-12-15T05:52:25;14.53;;;5.93;;
18883;SDS011;9574;47.282;9.640;2022-12-15T05:54:52;23.17;;;6.37;;
18883;SDS011;9574;47.282;9.640;2022-12-15T05:57:19;9.30;;;5.70;;
18883;SDS011;9574;47.282;9.640;2022-12-15T05:59:46;24.70;;;5.63;;
18883;SDS011;9574;47.282;9.640;2022-12-15T06:02:13;36.03;;;6.60;;
18883;SDS011;9574;47.282;9.640;2022-12-15T06:04:40;12.17;;;6.37;;
18883;SDS011;9574;47.282;9.640;2022-12-15T06:07:08;30.53;;;6.47;;
18883;SDS011;9574;47.282;9.640;2022-12-15T06:09:35;35.47;;;8.40;;
18883;SDS011;9574;47.282;9.640;2022-12-15T06:12:02;34.73;;;8.03;;
18883;SDS011;9574;47.282;9.640;2022-12-15T06:14:29;19.60;;;7.30;;
18883;SDS011;9574;47.282;9.640;2022-12-15T06:16:56;30.70;;;7.53;;
18883;SDS011;9574;47.282;9.640;2022-12-15T06:19:23;25.80;;;7.07;;
18883;SDS011;9574;47.282;9.640;2022-12-15T06:21:50;23.33;;;7.83;;
18883;SDS011;9574;47.282;9.640;2022-12-15T06:24:19;24.63;;;9.00;;
18883;SDS011;9574;47.282;9.640;2022-12-15T06:26:46;27.30;;;8.43;;
18883;SDS011;9574;47.282;9.640;2022-12-15T06:29:13;19.83;;;8.27;;
18883;SDS011;9574;47.282;9.640;2022-12-15T06:31:40;26.87;;;8.10;;
18883;SDS011;9574;47.282;9.640;2022-12-15T06:34:09;20.63;;;7.87;;
18883;SDS011;9574;47.282;9.640;2022-12-15T06:36:37;12.57;;;7.80;;
18883;SDS011;9574;47.282;9.640;2022-12-15T06:39:05;11.07;;;7.27;;
18883;SDS011;9574;47.282;9.640;2022-12-15T06:41:35;45.60;;;8.53;;
18883;SDS011;9574;47.282;9.640;2022-12-15T06:44:02;24.20;;;8.77;;
18883;SDS011;9574;47.282;9.640;2022-12-15T06:46:30;25.57;;;9.03;;
18883;SDS011;9574;47.282;9.640;2022-12-15T06:48:59;19.33;;;9.57;;
18883;SDS011;9574;47.282;9.640;2022-12-15T06:51:26;35.40;;;9.57;;
18883;SDS011;9574;47.282;9.640;2022-12-15T06:53:53;39.03;;;8.83;;
18883;SDS011;9574;47.282;9.640;2022-12-15T06:56:21;23.70;;;9.53;;
18883;SDS011;9574;47.282;9.640;2022-12-15T06:58:51;26.53;;;9.90;;
18883;SDS011;9574;47.282;9.640;2022-12-15T07:01:18;16.20;;;8.40;;
18883;SDS011;9574;47.282;9.640;2022-12-15T07:03:47;29.80;;;9.13;;
18883;SDS011;9574;47.282;9.640;2022-12-15T07:06:15;26.73;;;7.97;;
18883;SDS011;9574;47.282;9.640;2022-12-15T07:08:42;34.77;;;8.70;;
18883;SDS011;9574;47.282;9.640;2022-12-15T07:11:11;33.57;;;9.23;;
18883;SDS011;9574;47.282;9.640;2022-12-15T07:13:39;27.00;;;10.03;;
18883;SDS011;9574;47.282;9.640;2022-12-15T07:16:08;31.77;;;11.23;;
18883;SDS011;9574;47.282;9.640;2022-12-15T07:18:36;17.33;;;8.83;;
18883;SDS011;9574;47.282;9.640;2022-12-15T07:21:05;34.83;;;8.63;;
18883;SDS011;9574;47.282;9.640;2022-12-15T07:23:33;20.37;;;9.27;;
18883;SDS011;9574;47.282;9.640;2022-12-15T07:26:02;15.17;;;8.17;;
18883;SDS011;9574;47.282;9.640;2022-12-15T07:28:29;36.57;;;8.83;;
18883;SDS011;9574;47.282;9.640;2022-12-15T07:30:59;21.27;;;8.20;;
18883;SDS011;9574;47.282;9.640;2022-12-15T07:33:29;26.97;;;9.07;;
18883;SDS011;9574;47.282;9.640;2022-12-15T07:35:57;20.87;;;8.33;;
18883;SDS011;9574;47.282;9.640;2022-12-15T07:38:25;39.73;;;7.83;;
18883;SDS011;9574;47.282;9.640;2022-12-15T07:40:52;41.87;;;8.73;;
18883;SDS011;9574;47.282;9.640;2022-12-15T07:43:19;19.60;;;8.73;;
18883;SDS011;9574;47.282;9.640;2022-12-15T07:45:50;31.77;;;9.90;;
18883;SDS011;9574;47.282;9.640;2022-12-15T07:48:18;24.67;;;8.90;;
18883;SDS011;9574;47.282;9.640;2022-12-15T07:50:46;25.87;;;8.00;;
18883;SDS011;9574;47.282;9.640;2022-12-15T07:53:14;32.10;;;8.40;;
18883;SDS011;9574;47.282;9.640;2022-12-15T07:55:41;29.73;;;8.03;;
18883;SDS011;9574;47.282;9.640;2022-12-15T07:58:08;26.27;;;7.73;;
18883;SDS011;9574;47.282;9.640;2022-12-15T08:00:35;24.40;;;7.30;;
18883;SDS011;9574;47.282;9.640;2022-12-15T08:03:02;15.23;;;7.70;;
18883;SDS011;9574;47.282;9.640;2022-12-15T08:05:29;26.87;;;7.73;;
18883;SDS011;9574;47.282;9.640;2022-12-15T08:07:57;26.80;;;7.17;;
18883;SDS011;9574;47.282;9.640;2022-12-15T08:10:24;25.30;;;7.30;;
18883;SDS011;9574;47.282;9.640;2022-12-15T08:12:52;15.30;;;6.60;;
18883;SDS011;9574;47.282;9.640;2022-12-15T08:15:19;21.90;;;8.37;;
18883;SDS011;9574;47.282;9.640;2022-12-15T08:17:46;29.77;;;8.00;;
18883;SDS011;9574;47.282;9.640;2022-12-15T08:20:13;33.83;;;8.17;;
18883;SDS011;9574;47.282;9.640;2022-12-15T08:22:40;21.53;;;7.37;;
18883;SDS011;9574;47.282;9.640;2022-12-15T08:25:09;38.00;;;7.27;;
18883;SDS011;9574;47.282;9.640;2022-12-15T08:27:36;28.80;;;7.30;;
18883;SDS011;9574;47.282;9.640;2022-12-15T08:30:03;29.57;;;9.53;;
18883;SDS011;9574;47.282;9.640;2022-12-15T08:32:31;22.87;;;7.60;;
18883;SDS011;9574;47.282;9.640;2022-12-15T08:34:58;28.63;;;7.77;;
18883;SDS011;9574;47.282;9.640;2022-12-15T08:37:25;28.93;;;8.57;;
18883;SDS011;9574;47.282;9.640;2022-12-15T08:39:52;35.03;;;9.40;;
18883;SDS011;9574;47.282;9.640;2022-12-15T08:42:21;33.93;;;8.57;;
18883;SDS011;9574;47.282;9.640;2022-12-15T08:44:47;28.03;;;8.10;;
18883;SDS011;9574;47.282;9.640;2022-12-15T08:47:15;35.93;;;8.67;;
18883;SDS011;9574;47.282;9.640;2022-12-15T08:49:41;39.57;;;9.93;;
18883;SDS011;9574;47.282;9.640;2022-12-15T08:52:08;34.57;;;8.87;;
18883;SDS011;9574;47.282;9.640;2022-12-15T08:54:36;37.70;;;9.13;;
18883;SDS011;9574;47.282;9.640;2022-12-15T08:57:03;29.80;;;8.90;;
18883;SDS011;9574;47.282;9.640;2022-12-15T08:59:32;47.00;;;8.33;;
18883;SDS011;9574;47.282;9.640;2022-12-15T09:01:59;31.52;;;11.25;;
18883;SDS011;9574;47.282;9.640;2022-12-15T09:04:26;49.50;;;11.00;;
18883;SDS011;9574;47.282;9.640;2022-12-15T09:06:53;53.77;;;10.03;;
18883;SDS011;9574;47.282;9.640;2022-12-15T09:09:20;52.73;;;9.53;;
18883;SDS011;9574;47.282;9.640;2022-12-15T09:11:47;39.60;;;8.93;;
18883;SDS011;9574;47.282;9.640;2022-12-15T09:14:14;53.77;;;9.73;;
18883;SDS011;9574;47.282;9.640;2022-12-15T09:16:43;45.13;;;9.27;;
18883;SDS011;9574;47.282;9.640;2022-12-15T09:19:10;67.87;;;9.57;;
18883;SDS011;9574;47.282;9.640;2022-12-15T09:21:37;49.63;;;9.27;;
18883;SDS011;9574;47.282;9.640;2022-12-15T09:24:09;49.30;;;10.37;;
18883;SDS011;9574;47.282;9.640;2022-12-15T09:26:38;35.87;;;9.77;;
18883;SDS011;9574;47.282;9.640;2022-12-15T09:29:06;38.60;;;9.23;;
18883;SDS011;9574;47.282;9.640;2022-12-15T09:31:36;21.90;;;9.13;;
18883;SDS011;9574;47.282;9.640;2022-12-15T09:34:05;32.67;;;9.67;;
18883;SDS011;9574;47.282;9.640;2022-12-15T09:36:32;29.57;;;9.73;;
18883;SDS011;9574;47.282;9.640;2022-12-15T09:38:59;22.47;;;8.87;;
18883;SDS011;9574;47.282;9.640;2022-12-15T09:41:28;38.57;;;9.90;;
18883;SDS011;9574;47.282;9.640;2022-12-15T09:43:58;51.37;;;9.83;;
18883;SDS011;9574;47.282;9.640;2022-12-15T09:46:33;52.73;;;10.07;;
18883;SDS011;9574;47.282;9.640;2022-12-15T09:49:12;26.13;;;10.20;;
18883;SDS011;9574;47.282;9.640;2022-12-15T09:51:46;28.23;;;10.17;;
18883;SDS011;9574;47.282;9.640;2022-12-15T09:54:16;39.17;;;10.20;;
18883;SDS011;9574;47.282;9.640;2022-12-15T09:56:45;34.10;;;10.67;;
18883;SDS011;9574;47.282;9.640;2022-12-15T09:59:21;40.03;;;10.20;;
18883;SDS011;9574;47.282;9.640;2022-12-15T10:01:55;29.97;;;10.03;;
18883;SDS011;9574;47.282;9.640;2022-12-15T10:04:35;49.13;;;10.37;;
18883;SDS011;9574;47.282;9.640;2022-12-15T10:07:11;25.17;;;9.07;;
18883;SDS011;9574;47.282;9.640;2022-12-15T10:09:46;29.43;;;9.20;;
18883;SDS011;9574;47.282;9.640;2022-12-15T10:12:14;45.40;;;9.83;;
18883;SDS011;9574;47.282;9.640;2022-12-15T10:14:48;23.07;;;9.63;;
18883;SDS011;9574;47.282;9.640;2022-12-15T10:17:21;16.27;;;8.93;;
18883;SDS011;9574;47.282;9.640;2022-12-15T10:19:52;28.07;;;9.40;;
18883;SDS011;9574;47.282;9.640;2022-12-15T10:22:26;26.57;;;9.70;;
18883;SDS011;9574;47.282;9.640;2022-12-15T10:24:56;38.83;;;9.93;;
18883;SDS011;9574;47.282;9.640;2022-12-15T10:27:32;32.50;;;8.63;;
18883;SDS011;9574;47.282;9.640;2022-12-15T10:30:12;49.93;;;10.07;;
18883;SDS011;9574;47.282;9.640;2022-12-15T10:32:43;25.70;;;8.57;;
18883;SDS011;9574;47.282;9.640;2022-12-15T10:35:16;52.07;;;10.27;;
18883;SDS011;9574;47.282;9.640;2022-12-15T10:37:46;58.00;;;11.27;;
18883;SDS011;9574;47.282;9.640;2022-12-15T10:40:13;29.13;;;8.80;;
18883;SDS011;9574;47.282;9.640;2022-12-15T10:42:44;18.97;;;9.37;;
18883;SDS011;9574;47.282;9.640;2022-12-15T10:45:27;38.90;;;9.83;;
18883;SDS011;9574;47.282;9.640;2022-12-15T10:47:57;34.73;;;9.57;;
18883;SDS011;9574;47.282;9.640;2022-12-15T10:50:27;22.17;;;9.80;;
18883;SDS011;9574;47.282;9.640;2022-12-15T10:52:55;25.20;;;10.97;;
18883;SDS011;9574;47.282;9.640;2022-12-15T10:55:32;27.87;;;8.87;;
18883;SDS011;9574;47.282;9.640;2022-12-15T10:58:03;27.03;;;9.33;;
18883;SDS011;9574;47.282;9.640;2022-12-15T11:00:41;37.63;;;10.23;;
18883;SDS011;9574;47.282;9.640;2022-12-15T11:03:19;36.63;;;10.33;;
18883;SDS011;9574;47.282;9.640;2022-12-15T11:05:51;36.87;;;10.37;;
18883;SDS011;9574;47.282;9.640;2022-12-15T11:08:19;34.43;;;10.20;;
18883;SDS011;9574;47.282;9.640;2022-12-15T11:10:48;35.43;;;11.67;;
18883;SDS011;9574;47.282;9.640;2022-12-15T11:13:35;28.80;;;15.83;;
18883;SDS011;9574;47.282;9.640;2022-12-15T11:16:09;27.00;;;11.20;;
18883;SDS011;9574;47.282;9.640;2022-12-15T11:18:41;26.73;;;9.87;;
18883;SDS011;9574;47.282;9.640;2022-12-15T11:21:16;26.40;;;10.00;;
18883;SDS011;9574;47.282;9.640;2022-12-15T11:23:49;27.43;;;9.77;;
18883;SDS011;9574;47.282;9.640;2022-12-15T11:26:24;28.93;;;9.43;;
18883;SDS011;9574;47.282;9.640;2022-12-15T11:29:00;21.50;;;9.80;;
18883;SDS011;9574;47.282;9.640;2022-12-15T11:31:36;27.10;;;9.83;;
18883;SDS011;9574;47.282;9.640;2022-12-15T11:34:09;33.30;;;10.57;;
18883;SDS011;9574;47.282;9.640;2022-12-15T11:36:44;45.50;;;11.13;;
18883;SDS011;9574;47.282;9.640;2022-12-15T11:39:30;22.13;;;9.43;;
18883;SDS011;9574;47.282;9.640;2022-12-15T11:42:08;46.50;;;11.03;;
18883;SDS011;9574;47.282;9.640;2022-12-15T11:44:41;28.87;;;10.70;;
18883;SDS011;9574;47.282;9.640;2022-12-15T11:47:18;42.53;;;12.57;;
18883;SDS011;9574;47.282;9.640;2022-12-15T11:52:48;33.60;;;12.73;;
18883;SDS011;9574;47.282;9.640;2022-12-15T11:55:23;30.73;;;12.03;;
18883;SDS011;9574;47.282;9.640;2022-12-15T12:00:50;36.73;;;12.27;;
18883;SDS011;9574;47.282;9.640;2022-12-15T12:03:26;29.63;;;12.63;;
18883;SDS011;9574;47.282;9.640;2022-12-15T12:06:15;31.37;;;11.90;;
18883;SDS011;9574;47.282;9.640;2022-12-15T12:11:53;23.53;;;10.13;;
18883;SDS011;9574;47.282;9.640;2022-12-15T12:14:30;23.50;;;11.63;;
18883;SDS011;9574;47.282;9.640;2022-12-15T12:17:07;26.33;;;11.03;;
18883;SDS011;9574;47.282;9.640;2022-12-15T12:19:41;25.70;;;11.57;;
18883;SDS011;9574;47.282;9.640;2022-12-15T12:22:19;20.03;;;9.47;;
18883;SDS011;9574;47.282;9.640;2022-12-15T12:24:51;28.63;;;10.37;;
18883;SDS011;9574;47.282;9.640;2022-12-15T12:27:26;22.03;;;9.93;;
18883;SDS011;9574;47.282;9.640;2022-12-15T12:30:02;21.87;;;10.23;;
18883;SDS011;9574;47.282;9.640;2022-12-15T12:32:38;22.90;;;10.57;;
18883;SDS011;9574;47.282;9.640;2022-12-15T12:35:14;31.37;;;10.67;;
18883;SDS011;9574;47.282;9.640;2022-12-15T12:37:48;26.33;;;11.87;;
18883;SDS011;9574;47.282;9.640;2022-12-15T12:40:21;28.13;;;11.10;;
18883;SDS011;9574;47.282;9.640;2022-12-15T12:42:54;23.93;;;10.97;;
18883;SDS011;9574;47.282;9.640;2022-12-15T12:45:23;22.23;;;10.37;;
18883;SDS011;9574;47.282;9.640;2022-12-15T12:47:56;21.07;;;9.60;;
18883;SDS011;9574;47.282;9.640;2022-12-15T12:50:27;25.30;;;9.83;;
18883;SDS011;9574;47.282;9.640;2022-12-15T12:52:56;25.57;;;10.57;;
18883;SDS011;9574;47.282;9.640;2022-12-15T12:55:33;23.70;;;10.03;;
18883;SDS011;9574;47.282;9.640;2022-12-15T12:58:04;21.60;;;9.13;;
18883;SDS011;9574;47.282;9.640;2022-12-15T13:01:17;25.60;;;10.83;;
18883;SDS011;9574;47.282;9.640;2022-12-15T13:04:03;21.93;;;10.20;;
18883;SDS011;9574;47.282;9.640;2022-12-15T13:09:35;23.17;;;9.53;;
18883;SDS011;9574;47.282;9.640;2022-12-15T13:12:06;21.70;;;10.23;;
18883;SDS011;9574;47.282;9.640;2022-12-15T13:15:02;22.30;;;9.50;;
18883;SDS011;9574;47.282;9.640;2022-12-15T13:17:37;18.60;;;9.00;;
18883;SDS011;9574;47.282;9.640;2022-12-15T13:22:52;20.87;;;9.20;;
18883;SDS011;9574;47.282;9.640;2022-12-15T13:28:27;22.17;;;9.43;;
18883;SDS011;9574;47.282;9.640;2022-12-15T13:31:21;22.30;;;9.63;;
18883;SDS011;9574;47.282;9.640;2022-12-15T13:36:45;21.30;;;8.63;;
18883;SDS011;9574;47.282;9.640;2022-12-15T13:42:30;22.93;;;9.87;;
18883;SDS011;9574;47.282;9.640;2022-12-15T13:45:21;29.97;;;12.67;;
18883;SDS011;9574;47.282;9.640;2022-12-15T13:47:58;17.27;;;9.03;;
18883;SDS011;9574;47.282;9.640;2022-12-15T13:50:30;17.53;;;8.97;;
18883;SDS011;9574;47.282;9.640;2022-12-15T13:53:07;20.73;;;10.27;;
18883;SDS011;9574;47.282;9.640;2022-12-15T13:55:47;16.77;;;9.43;;
18883;SDS011;9574;47.282;9.640;2022-12-15T13:58:19;21.33;;;9.53;;
18883;SDS011;9574;47.282;9.640;2022-12-15T14:00:50;23.93;;;10.30;;
18883;SDS011;9574;47.282;9.640;2022-12-15T14:03:20;23.77;;;9.67;;
18883;SDS011;9574;47.282;9.640;2022-12-15T14:05:49;30.83;;;10.43;;
18883;SDS011;9574;47.282;9.640;2022-12-15T14:08:17;26.87;;;10.67;;
18883;SDS011;9574;47.282;9.640;2022-12-15T14:10:47;28.13;;;10.17;;
18883;SDS011;9574;47.282;9.640;2022-12-15T14:13:17;18.70;;;10.13;;
18883;SDS011;9574;47.282;9.640;2022-12-15T14:15:47;22.50;;;9.40;;
18883;SDS011;9574;47.282;9.640;2022-12-15T14:18:24;21.93;;;10.60;;
18883;SDS011;9574;47.282;9.640;2022-12-15T14:20:52;24.27;;;11.40;;
18883;SDS011;9574;47.282;9.640;2022-12-15T14:23:20;29.37;;;11.53;;
18883;SDS011;9574;47.282;9.640;2022-12-15T14:25:52;22.83;;;11.63;;
18883;SDS011;9574;47.282;9.640;2022-12-15T14:28:29;18.20;;;9.10;;
18883;SDS011;9574;47.282;9.640;2022-12-15T14:31:00;20.33;;;10.50;;
18883;SDS011;9574;47.282;9.640;2022-12-15T14:33:30;20.63;;;10.60;;
18883;SDS011;9574;47.282;9.640;2022-12-15T14:36:00;23.93;;;9.70;;
18883;SDS011;9574;47.282;9.640;2022-12-15T14:38:31;23.47;;;10.00;;
18883;SDS011;9574;47.282;9.640;2022-12-15T14:41:03;21.83;;;10.10;;
18883;SDS011;9574;47.282;9.640;2022-12-15T14:43:32;24.63;;;11.47;;
18883;SDS011;9574;47.282;9.640;2022-12-15T14:46:07;34.33;;;13.63;;
18883;SDS011;9574;47.282;9.640;2022-12-15T14:48:37;36.67;;;14.43;;
18883;SDS011;9574;47.282;9.640;2022-12-15T14:51:08;32.73;;;14.80;;
18883;SDS011;9574;47.282;9.640;2022-12-15T14:53:38;29.90;;;13.83;;
18883;SDS011;9574;47.282;9.640;2022-12-15T14:56:11;26.50;;;13.77;;
18883;SDS011;9574;47.282;9.640;2022-12-15T14:58:45;36.20;;;15.40;;
18883;SDS011;9574;47.282;9.640;2022-12-15T15:01:23;34.63;;;14.27;;
18883;SDS011;9574;47.282;9.640;2022-12-15T15:03:56;36.33;;;14.77;;
18883;SDS011;9574;47.282;9.640;2022-12-15T15:06:26;28.20;;;12.83;;
18883;SDS011;9574;47.282;9.640;2022-12-15T15:09:15;26.97;;;12.67;;
18883;SDS011;9574;47.282;9.640;2022-12-15T15:11:49;29.80;;;14.97;;
18883;SDS011;9574;47.282;9.640;2022-12-15T15:14:20;32.17;;;14.50;;
18883;SDS011;9574;47.282;9.640;2022-12-15T15:16:59;26.63;;;14.20;;
18883;SDS011;9574;47.282;9.640;2022-12-15T15:19:29;20.70;;;10.63;;
18883;SDS011;9574;47.282;9.640;2022-12-15T15:21:58;23.47;;;9.93;;
18883;SDS011;9574;47.282;9.640;2022-12-15T15:24:28;26.37;;;10.77;;
18883;SDS011;9574;47.282;9.640;2022-12-15T15:29:47;19.83;;;10.23;;
18883;SDS011;9574;47.282;9.640;2022-12-15T15:32:17;21.90;;;9.67;;
18883;SDS011;9574;47.282;9.640;2022-12-15T15:34:45;17.20;;;8.73;;
18883;SDS011;9574;47.282;9.640;2022-12-15T15:37:15;18.53;;;8.73;;
18883;SDS011;9574;47.282;9.640;2022-12-15T15:39:44;15.87;;;8.83;;
18883;SDS011;9574;47.282;9.640;2022-12-15T15:42:13;22.10;;;10.17;;
18883;SDS011;9574;47.282;9.640;2022-12-15T15:44:40;22.97;;;9.97;;
18883;SDS011;9574;47.282;9.640;2022-12-15T15:47:11;17.67;;;9.33;;
18883;SDS011;9574;47.282;9.640;2022-12-15T15:49:46;17.93;;;10.53;;
18883;SDS011;9574;47.282;9.640;2022-12-15T15:52:13;22.33;;;10.23;;